Purdue University, IN

5:09 AM EDT on August 30, 2014 (GMT -0400)
Purdue Univ | Change Station
CLOSE
Current Station
Airport
Location: Lafayette,
Elevation: 604 ft
Nearby Weather Stations

Elev 604 ft 40.41 °N, 86.93 °W | Updated 15 minutes ago

Mostly Cloudy
Mostly Cloudy
72 °F
Feels Like 72 °F
N
6
Wind Variable Wind from South

Today
High -- | Low -- °F
--% Chance of Precip.
Yesterday
High -- | Low -- °F
Precip. -- in
7:12 AM 8:22 PM
Waxing Crescent, 20% visible
Pressure 29.91 in
Visibility 10.0 miles
Clouds Mostly Cloudy 6000 ft
Dew Point 67 °F
Humidity 84%
Rainfall 0.00 in
Snow Depth Not available.
UV 0 out of 12
Pollen 10.60 out of 12
Air Quality Not available.
Flu Activity Not available.
METAR KLAF 300854Z AUTO 18005KT 10SM BKN060 22/19 A2993 RMK AO2 SLP129 T02220194 55005

More Conditions Fewer Conditions

Pressure 29.91 in
Visibility 10.0 miles
Clouds Mostly Cloudy 6000 ft
Dew Point 67 °F
Humidity 84%
Rainfall 0.00 in
Snow Depth Not available.
UV 0 out of 12
Pollen 10.60 out of 12
Air Quality Not available.
Flu Activity Not available.
METAR KLAF 300854Z AUTO 18005KT 10SM BKN060 22/19 A2993 RMK AO2 SLP129 T02220194 55005

More Conditions Fewer Conditions

10-Day Weather Forecast

Almanac

Astronomy

Aug. 30, 2014 Rise Set
Actual Time 7:12 AM EDT 8:22 PM EDT
Civil Twilight 6:44 AM EDT 8:50 PM EDT
Nautical Twilight 6:11 AM EDT 9:23 PM EDT
Astronomical Twilight 5:36 AM EDT 9:58 PM EDT
Moon 12:00 PM EDT 10:55 PM EDT
Length of Visible Light 14h 05m
Length of Day
13h 09m
Tomorrow will be 2m 33s shorter.
Waxing Crescent, 20% of the Moon is Illuminated
Today
Waxing Crescent
Sep 2
First Quarter
Sep 8
Full
Sep 15
Last Quarter
Sep 24
New

Today's Extremes

State Highs State Lows

Community

WunderPhotos

Upload Photos

1,748,474 photos uploaded!

Nearby

Snow Depth

Station Depth Elevation
No new snow has been reported.

Earthquake Activity

City Distance Mag. Time & Date
No recent earthquake activity has been reported nearby.
Minimum magnitude displayed is 2.5.

Coastal Water Temperatures

Place Temperature
No Stations Reporting

Nearby Weather Stations